sensor_id;sensor_type;location;lat;lon;timestamp;P1;durP1;ratioP1;P2;durP2;ratioP2
22017;SDS011;11173;51.050;7.108;2023-11-19T00:09:01;0.20;;;0.20;;
22017;SDS011;11173;51.050;7.108;2023-11-19T00:19:01;0.25;;;0.20;;
22017;SDS011;11173;51.050;7.108;2023-11-19T00:29:01;0.20;;;0.20;;
22017;SDS011;11173;51.050;7.108;2023-11-19T00:39:02;0.25;;;0.25;;
22017;SDS011;11173;51.050;7.108;2023-11-19T00:49:02;0.10;;;0.10;;
22017;SDS011;11173;51.050;7.108;2023-11-19T00:59:03;0.10;;;0.10;;
22017;SDS011;11173;51.050;7.108;2023-11-19T01:09:03;0.45;;;0.20;;
22017;SDS011;11173;51.050;7.108;2023-11-19T01:19:04;0.10;;;0.10;;
22017;SDS011;11173;51.050;7.108;2023-11-19T01:29:04;0.10;;;0.10;;
22017;SDS011;11173;51.050;7.108;2023-11-19T01:39:05;0.20;;;0.20;;
22017;SDS011;11173;51.050;7.108;2023-11-19T01:49:06;0.10;;;0.10;;
22017;SDS011;11173;51.050;7.108;2023-11-19T01:59:07;0.52;;;0.20;;
22017;SDS011;11173;51.050;7.108;2023-11-19T02:09:11;0.30;;;0.30;;
22017;SDS011;11173;51.050;7.108;2023-11-19T02:19:11;0.20;;;0.20;;
22017;SDS011;11173;51.050;7.108;2023-11-19T02:29:12;0.13;;;0.13;;
22017;SDS011;11173;51.050;7.108;2023-11-19T02:39:13;0.13;;;0.13;;
22017;SDS011;11173;51.050;7.108;2023-11-19T02:49:14;0.25;;;0.22;;
22017;SDS011;11173;51.050;7.108;2023-11-19T02:59:15;0.45;;;0.20;;
22017;SDS011;11173;51.050;7.108;2023-11-19T03:09:27;0.15;;;0.15;;
22017;SDS011;11173;51.050;7.108;2023-11-19T03:19:29;0.35;;;0.30;;
22017;SDS011;11173;51.050;7.108;2023-11-19T03:29:29;0.45;;;0.20;;
22017;SDS011;11173;51.050;7.108;2023-11-19T03:39:30;0.20;;;0.20;;
22017;SDS011;11173;51.050;7.108;2023-11-19T03:49:30;0.28;;;0.28;;
22017;SDS011;11173;51.050;7.108;2023-11-19T03:59:30;0.98;;;0.45;;
22017;SDS011;11173;51.050;7.108;2023-11-19T04:09:31;1.13;;;0.73;;
22017;SDS011;11173;51.050;7.108;2023-11-19T04:19:33;1.25;;;0.60;;
22017;SDS011;11173;51.050;7.108;2023-11-19T04:29:33;0.50;;;0.50;;
22017;SDS011;11173;51.050;7.108;2023-11-19T04:39:34;3.70;;;0.73;;
22017;SDS011;11173;51.050;7.108;2023-11-19T04:49:34;2.97;;;0.90;;
22017;SDS011;11173;51.050;7.108;2023-11-19T04:59:35;4.72;;;1.10;;
22017;SDS011;11173;51.050;7.108;2023-11-19T05:09:35;4.07;;;1.55;;
22017;SDS011;11173;51.050;7.108;2023-11-19T05:19:35;4.93;;;1.63;;
22017;SDS011;11173;51.050;7.108;2023-11-19T05:29:36;10.93;;;2.47;;
22017;SDS011;11173;51.050;7.108;2023-11-19T05:39:39;9.05;;;2.70;;
22017;SDS011;11173;51.050;7.108;2023-11-19T05:49:39;7.47;;;2.00;;
22017;SDS011;11173;51.050;7.108;2023-11-19T05:59:39;13.70;;;2.70;;
22017;SDS011;11173;51.050;7.108;2023-11-19T06:09:40;5.32;;;1.83;;
22017;SDS011;11173;51.050;7.108;2023-11-19T06:19:40;7.85;;;2.28;;
22017;SDS011;11173;51.050;7.108;2023-11-19T06:29:41;10.50;;;2.65;;
22017;SDS011;11173;51.050;7.108;2023-11-19T06:39:42;6.28;;;1.90;;
22017;SDS011;11173;51.050;7.108;2023-11-19T06:49:43;6.97;;;2.15;;
22017;SDS011;11173;51.050;7.108;2023-11-19T06:59:44;12.45;;;3.13;;
22017;SDS011;11173;51.050;7.108;2023-11-19T07:09:44;9.90;;;3.20;;
22017;SDS011;11173;51.050;7.108;2023-11-19T07:19:45;7.72;;;2.47;;
22017;SDS011;11173;51.050;7.108;2023-11-19T07:29:48;10.32;;;2.70;;
22017;SDS011;11173;51.050;7.108;2023-11-19T07:39:48;13.13;;;3.33;;
22017;SDS011;11173;51.050;7.108;2023-11-19T07:49:50;7.70;;;2.38;;
22017;SDS011;11173;51.050;7.108;2023-11-19T07:59:50;9.65;;;2.97;;
22017;SDS011;11173;51.050;7.108;2023-11-19T08:09:51;11.68;;;2.80;;
22017;SDS011;11173;51.050;7.108;2023-11-19T08:19:51;11.03;;;3.10;;
22017;SDS011;11173;51.050;7.108;2023-11-19T08:29:53;11.70;;;3.13;;
22017;SDS011;11173;51.050;7.108;2023-11-19T08:39:56;12.57;;;2.58;;
22017;SDS011;11173;51.050;7.108;2023-11-19T08:49:57;11.25;;;2.83;;
22017;SDS011;11173;51.050;7.108;2023-11-19T08:59:57;14.25;;;3.47;;
22017;SDS011;11173;51.050;7.108;2023-11-19T09:09:57;13.98;;;3.97;;
22017;SDS011;11173;51.050;7.108;2023-11-19T09:19:58;17.08;;;4.30;;
22017;SDS011;11173;51.050;7.108;2023-11-19T09:29:58;12.68;;;3.65;;
22017;SDS011;11173;51.050;7.108;2023-11-19T09:39:59;13.07;;;3.45;;
22017;SDS011;11173;51.050;7.108;2023-11-19T09:49:59;14.73;;;3.50;;
22017;SDS011;11173;51.050;7.108;2023-11-19T09:59:59;13.90;;;3.22;;
22017;SDS011;11173;51.050;7.108;2023-11-19T10:10:01;17.65;;;4.28;;
22017;SDS011;11173;51.050;7.108;2023-11-19T10:20:04;17.48;;;3.33;;
22017;SDS011;11173;51.050;7.108;2023-11-19T10:30:05;13.27;;;3.47;;
22017;SDS011;11173;51.050;7.108;2023-11-19T10:40:06;16.83;;;4.30;;
22017;SDS011;11173;51.050;7.108;2023-11-19T10:50:10;16.27;;;3.20;;
22017;SDS011;11173;51.050;7.108;2023-11-19T11:00:10;15.85;;;3.88;;
22017;SDS011;11173;51.050;7.108;2023-11-19T11:10:18;13.68;;;3.42;;
22017;SDS011;11173;51.050;7.108;2023-11-19T11:20:22;10.95;;;2.90;;
22017;SDS011;11173;51.050;7.108;2023-11-19T11:41:05;11.35;;;3.53;;
22017;SDS011;11173;51.050;7.108;2023-11-19T12:02:00;9.38;;;2.15;;
22017;SDS011;11173;51.050;7.108;2023-11-19T12:12:07;12.75;;;3.30;;
22017;SDS011;11173;51.050;7.108;2023-11-19T12:22:14;12.40;;;2.70;;
22017;SDS011;11173;51.050;7.108;2023-11-19T12:32:15;11.60;;;3.75;;
22017;SDS011;11173;51.050;7.108;2023-11-19T12:42:15;7.68;;;2.25;;
22017;SDS011;11173;51.050;7.108;2023-11-19T12:52:16;8.98;;;1.95;;
22017;SDS011;11173;51.050;7.108;2023-11-19T13:02:17;6.10;;;2.17;;
22017;SDS011;11173;51.050;7.108;2023-11-19T13:12:17;7.38;;;2.72;;
22017;SDS011;11173;51.050;7.108;2023-11-19T13:22:17;8.38;;;2.30;;
22017;SDS011;11173;51.050;7.108;2023-11-19T13:32:18;7.82;;;1.95;;
22017;SDS011;11173;51.050;7.108;2023-11-19T13:42:18;9.57;;;2.88;;
22017;SDS011;11173;51.050;7.108;2023-11-19T13:52:18;9.65;;;2.25;;
22017;SDS011;11173;51.050;7.108;2023-11-19T14:02:19;9.27;;;2.72;;
22017;SDS011;11173;51.050;7.108;2023-11-19T14:12:19;9.40;;;2.65;;
22017;SDS011;11173;51.050;7.108;2023-11-19T14:22:20;7.20;;;1.85;;
22017;SDS011;11173;51.050;7.108;2023-11-19T14:32:21;8.45;;;3.05;;
22017;SDS011;11173;51.050;7.108;2023-11-19T14:42:21;7.30;;;2.13;;
22017;SDS011;11173;51.050;7.108;2023-11-19T14:52:22;10.93;;;2.85;;
22017;SDS011;11173;51.050;7.108;2023-11-19T15:02:23;15.57;;;3.15;;
22017;SDS011;11173;51.050;7.108;2023-11-19T15:12:23;15.75;;;3.83;;
22017;SDS011;11173;51.050;7.108;2023-11-19T15:22:23;11.98;;;3.15;;
22017;SDS011;11173;51.050;7.108;2023-11-19T15:32:24;16.17;;;3.78;;
22017;SDS011;11173;51.050;7.108;2023-11-19T15:42:24;10.65;;;2.40;;
22017;SDS011;11173;51.050;7.108;2023-11-19T15:52:24;10.05;;;3.03;;
22017;SDS011;11173;51.050;7.108;2023-11-19T16:02:26;6.30;;;1.85;;
22017;SDS011;11173;51.050;7.108;2023-11-19T16:12:27;5.57;;;1.65;;
22017;SDS011;11173;51.050;7.108;2023-11-19T16:22:27;3.10;;;1.13;;
22017;SDS011;11173;51.050;7.108;2023-11-19T16:32:27;2.83;;;1.00;;
22017;SDS011;11173;51.050;7.108;2023-11-19T16:42:28;4.93;;;1.63;;
22017;SDS011;11173;51.050;7.108;2023-11-19T16:52:28;4.40;;;1.80;;
22017;SDS011;11173;51.050;7.108;2023-11-19T17:02:28;3.97;;;1.63;;
22017;SDS011;11173;51.050;7.108;2023-11-19T17:12:30;8.27;;;2.22;;
22017;SDS011;11173;51.050;7.108;2023-11-19T17:22:33;10.20;;;2.47;;
22017;SDS011;11173;51.050;7.108;2023-11-19T17:32:38;4.47;;;1.50;;
22017;SDS011;11173;51.050;7.108;2023-11-19T17:42:38;6.53;;;1.70;;
22017;SDS011;11173;51.050;7.108;2023-11-19T17:52:38;4.80;;;1.50;;
22017;SDS011;11173;51.050;7.108;2023-11-19T18:02:42;3.50;;;1.42;;
22017;SDS011;11173;51.050;7.108;2023-11-19T18:12:44;7.80;;;2.17;;
22017;SDS011;11173;51.050;7.108;2023-11-19T18:22:45;5.80;;;1.50;;
22017;SDS011;11173;51.050;7.108;2023-11-19T18:32:46;6.72;;;1.55;;
22017;SDS011;11173;51.050;7.108;2023-11-19T18:42:47;11.73;;;2.60;;
22017;SDS011;11173;51.050;7.108;2023-11-19T18:52:48;6.97;;;1.90;;
22017;SDS011;11173;51.050;7.108;2023-11-19T19:02:49;8.97;;;2.77;;
22017;SDS011;11173;51.050;7.108;2023-11-19T19:12:50;9.82;;;2.47;;
22017;SDS011;11173;51.050;7.108;2023-11-19T19:22:51;8.35;;;2.28;;
22017;SDS011;11173;51.050;7.108;2023-11-19T19:32:52;7.10;;;2.53;;
22017;SDS011;11173;51.050;7.108;2023-11-19T19:42:52;10.18;;;2.33;;
22017;SDS011;11173;51.050;7.108;2023-11-19T19:52:53;2.67;;;1.40;;
22017;SDS011;11173;51.050;7.108;2023-11-19T20:02:55;3.20;;;1.15;;
22017;SDS011;11173;51.050;7.108;2023-11-19T20:12:55;4.70;;;1.48;;
22017;SDS011;11173;51.050;7.108;2023-11-19T20:22:56;5.30;;;1.60;;
22017;SDS011;11173;51.050;7.108;2023-11-19T20:32:56;5.30;;;1.35;;
22017;SDS011;11173;51.050;7.108;2023-11-19T20:42:57;6.85;;;2.05;;
22017;SDS011;11173;51.050;7.108;2023-11-19T20:52:57;6.57;;;1.85;;
22017;SDS011;11173;51.050;7.108;2023-11-19T21:02:58;4.05;;;1.40;;
22017;SDS011;11173;51.050;7.108;2023-11-19T21:12:58;4.72;;;1.85;;
22017;SDS011;11173;51.050;7.108;2023-11-19T21:23:01;5.00;;;1.48;;
22017;SDS011;11173;51.050;7.108;2023-11-19T21:33:01;6.45;;;1.95;;
22017;SDS011;11173;51.050;7.108;2023-11-19T21:43:02;7.03;;;2.00;;
22017;SDS011;11173;51.050;7.108;2023-11-19T21:53:02;6.68;;;1.45;;
22017;SDS011;11173;51.050;7.108;2023-11-19T22:03:03;4.18;;;1.20;;
22017;SDS011;11173;51.050;7.108;2023-11-19T22:13:03;7.93;;;1.48;;
22017;SDS011;11173;51.050;7.108;2023-11-19T22:23:04;7.45;;;1.88;;
22017;SDS011;11173;51.050;7.108;2023-11-19T22:33:04;4.20;;;1.27;;
22017;SDS011;11173;51.050;7.108;2023-11-19T22:43:07;4.45;;;1.15;;
22017;SDS011;11173;51.050;7.108;2023-11-19T22:53:07;6.43;;;1.45;;
22017;SDS011;11173;51.050;7.108;2023-11-19T23:03:08;2.67;;;1.10;;
22017;SDS011;11173;51.050;7.108;2023-11-19T23:13:10;4.57;;;1.17;;
22017;SDS011;11173;51.050;7.108;2023-11-19T23:23:10;2.13;;;0.75;;
22017;SDS011;11173;51.050;7.108;2023-11-19T23:33:11;3.10;;;0.68;;
22017;SDS011;11173;51.050;7.108;2023-11-19T23:43:11;1.20;;;0.60;;
22017;SDS011;11173;51.050;7.108;2023-11-19T23:53:12;2.47;;;0.65;;
